首页
METAR-TAF:

METAR-TAF

机场 :

迪奥里·哈马尼国际机场

尼亞美, 尼日尔

纬度: 13-29N, 经度: 002-10E, 海拔: 223米

当前天气观测

该预报发布于1小时和12分钟前的07:00 UTC
风速8节,风向西南
温度 30°C
湿度 55%
气压 1013 hPa
能见度10公里或以上
少量云层高于4000英尺

METAR: DRRN 230700Z 23008KT 9999 FEW040 30/20 Q1013 NOSIG

时间: 09:12 (08:12 UTC)

预报

该预报发布于3小时和12分钟前的05:00 UTC
预报有效从23日的 06点(UTC)到 24日的 12点(UTC)
风速10节,风向西南
能见度10公里或以上
1500米以下无云,无积雨云
几率 40% :
短暂存在
从 23日的 15点(UTC)到 23日的 23点(UTC)
风速25节,风向,有时为45节阵风
能見度: 0400
多云层高于3000英尺
少量云层高于3300英尺, 积雨云.
飑, 雷暴, 雨

TAF: DRRN 230500Z 2306/2412 22010KT CAVOK PROB40 TEMPO 2315/2323 09025G45KT 0400 DS SQ TSRA BKN030 FEW033CB

超过4000个机场的气象观测和天气预报(METAR&TAF报告)。

可查询的气象台以黄色和红色小点在地图上表示。

将鼠标移到小点上方,可查看气象台名称。

然后点击查看天气观测和预报。

如需切换地图:点击带黑十字的绿色按钮放大地图;点击带横线的绿色按钮缩小地图;或者点击绿色箭头查看邻近地区的地图。


METAR-TAF: